Time;durP1;ratioP1;P1;durP2;ratioP2;P2;SDS_P1;SDS_P2;PMS_P1;PMS_P2;Temp;Humidity;BMP_temperature;BMP_pressure;BME280_temperature;BME280_humidity;BME280_pressure;Samples;Min_cycle;Max_cycle;Signal;HPM_P1;HPM_P2
2023/08/01 00:04:04;;;;;;;2.45;0.70;;;;;;;21.71;51.04;99891.94;16117556;19;129880;-52
2023/08/01 00:09:27;;;;;;;1.13;0.40;;;;;;;21.70;50.43;99884.72;16117082;19;130531;-52
2023/08/01 00:14:49;;;;;;;1.63;0.80;;;;;;;21.69;50.70;99877.50;16108653;19;132361;-53
2023/08/01 00:20:11;;;;;;;1.35;0.50;;;;;;;21.69;50.71;99883.06;16114940;19;129779;-53
2023/08/01 00:25:33;;;;;;;0.68;0.45;;;;;;;21.68;50.76;99884.19;16114837;19;129281;-53
2023/08/01 00:31:05;;;;;;;0.35;0.30;;;;;;;21.68;50.58;99886.97;16115067;19;129899;-54
2023/08/01 00:36:27;;;;;;;0.55;0.35;;;;;;;21.66;50.66;99886.44;16113876;19;130577;-54
2023/08/01 00:41:49;;;;;;;1.17;0.60;;;;;;;21.65;50.50;99887.56;16113257;19;129555;-54
2023/08/01 00:47:11;;;;;;;0.98;0.45;;;;;;;21.65;50.80;99895.91;16108187;19;130566;-55
2023/08/01 00:52:33;;;;;;;2.42;0.60;;;;;;;21.62;50.37;99886.19;16112902;19;130051;-55
2023/08/01 00:57:55;;;;;;;1.80;0.50;;;;;;;21.62;50.55;99891.75;16107789;19;130415;-50
2023/08/01 01:03:18;;;;;;;2.03;0.55;;;;;;;21.62;50.35;99891.75;16111209;19;130965;-53
2023/08/01 01:08:40;;;;;;;1.10;0.40;;;;;;;21.62;50.54;99888.16;16111277;19;129605;-54
2023/08/01 01:14:02;;;;;;;1.08;0.70;;;;;;;21.60;50.51;99880.06;16108576;19;129687;-55
2023/08/01 01:19:24;;;;;;;1.98;0.47;;;;;;;21.59;50.56;99875.66;16107261;19;129946;-53
2023/08/01 01:24:47;;;;;;;0.70;0.45;;;;;;;21.59;50.55;99878.44;16110097;19;130823;-53
2023/08/01 01:30:10;;;;;;;1.33;0.75;;;;;;;21.59;50.71;99877.59;16105599;19;130975;-55
2023/08/01 01:35:35;;;;;;;0.93;0.60;;;;;;;21.58;50.79;99864.78;16109312;19;130173;-51
2023/08/01 01:40:57;;;;;;;2.03;0.77;;;;;;;21.56;50.63;99867.03;16104444;19;130770;-55
2023/08/01 01:46:19;;;;;;;1.02;0.50;;;;;;;21.54;50.82;99856.22;16107534;19;130457;-55
2023/08/01 01:51:41;;;;;;;0.90;0.52;;;;;;;21.54;50.75;99856.22;16109355;19;130121;-55
2023/08/01 01:57:03;;;;;;;0.98;0.40;;;;;;;21.54;50.75;99863.75;16107785;19;130328;-55
2023/08/01 02:02:25;;;;;;;0.80;0.40;;;;;;;21.54;50.44;99869.31;16104409;19;130770;-53
2023/08/01 02:07:47;;;;;;;1.95;0.65;;;;;;;21.52;50.56;99877.94;16110057;19;129702;-54
2023/08/01 02:13:09;;;;;;;1.50;0.40;;;;;;;21.52;50.24;99875.16;16107539;19;130364;-51
2023/08/01 02:18:31;;;;;;;1.05;0.50;;;;;;;21.51;50.54;99873.47;16107569;19;130964;-54
2023/08/01 02:23:52;;;;;;;0.90;0.40;;;;;;;21.50;50.51;99875.44;16101908;19;131160;-52
2023/08/01 02:29:14;;;;;;;1.10;0.52;;;;;;;21.50;50.46;99881.00;16106881;19;129847;-54
2023/08/01 02:34:36;;;;;;;1.40;0.75;;;;;;;21.50;50.48;99880.16;16101397;19;129571;-51
2023/08/01 02:39:58;;;;;;;1.95;0.60;;;;;;;21.49;50.42;99887.69;16119319;19;130001;-51
2023/08/01 02:45:20;;;;;;;1.30;0.57;;;;;;;21.49;50.39;99890.47;16118456;19;130013;-54
2023/08/01 02:50:43;;;;;;;0.80;0.43;;;;;;;21.49;50.58;99886.84;16123132;19;129942;-49
2023/08/01 02:56:07;;;;;;;0.93;0.52;;;;;;;21.48;50.37;99894.34;16123666;19;129288;-53
2023/08/01 03:01:29;;;;;;;1.45;0.60;;;;;;;21.47;50.51;99892.69;16122756;19;129289;-52
2023/08/01 03:06:51;;;;;;;3.00;0.55;;;;;;;21.47;50.53;99895.47;16120404;19;130922;-56
2023/08/01 03:12:13;;;;;;;2.03;0.93;;;;;;;21.45;50.23;99892.16;16124023;19;130210;-54
2023/08/01 03:17:35;;;;;;;0.63;0.45;;;;;;;21.45;50.60;99894.94;16119631;19;131163;-54
2023/08/01 03:22:57;;;;;;;1.63;0.60;;;;;;;21.45;50.31;99892.16;16119296;19;130939;-56
2023/08/01 03:28:19;;;;;;;2.25;0.73;;;;;;;21.44;50.37;99896.03;16120081;19;129576;-54
2023/08/01 03:33:41;;;;;;;3.00;1.00;;;;;;;21.44;50.16;99890.47;16118936;19;130272;-57
2023/08/01 03:39:03;;;;;;;0.75;0.70;;;;;;;21.43;50.29;99897.16;16117773;19;130286;-57
2023/08/01 03:44:25;;;;;;;2.20;0.80;;;;;;;21.44;50.51;99898.00;16119605;19;129210;-53
2023/08/01 03:49:48;;;;;;;3.28;0.73;;;;;;;21.42;50.23;99898.28;16114923;19;129405;-53
2023/08/01 03:55:10;;;;;;;1.80;0.77;;;;;;;21.42;50.31;99903.84;16114137;19;131335;-50
2023/08/01 04:00:32;;;;;;;1.38;0.80;;;;;;;21.41;50.28;99905.00;16118967;19;129917;-49
2023/08/01 04:05:54;;;;;;;1.27;0.88;;;;;;;21.41;50.12;99905.00;16114425;19;130883;-50
2023/08/01 04:11:16;;;;;;;1.80;0.85;;;;;;;21.42;50.23;99906.63;16119933;19;129690;-53
2023/08/01 04:16:38;;;;;;;4.05;1.25;;;;;;;21.41;50.38;99902.22;16116201;19;130704;-49
2023/08/01 04:22:00;;;;;;;2.00;0.98;;;;;;;21.39;50.27;99901.66;16113418;19;129860;-49
2023/08/01 04:27:22;;;;;;;3.75;1.30;;;;;;;21.39;50.26;99904.44;16114205;19;132040;-51
2023/08/01 04:32:44;;;;;;;3.03;1.48;;;;;;;21.40;50.15;99908.03;16116900;19;129895;-50
2023/08/01 04:38:08;;;;;;;3.08;1.27;;;;;;;21.38;50.34;99900.00;16114617;19;130027;-50
2023/08/01 04:43:30;;;;;;;4.20;1.30;;;;;;;21.39;50.37;99901.66;16113039;19;129534;-51
2023/08/01 04:48:52;;;;;;;2.20;1.15;;;;;;;21.37;50.10;99903.91;16112877;19;131486;-50
2023/08/01 04:54:14;;;;;;;2.88;1.30;;;;;;;21.37;50.26;99904.72;16115206;19;131779;-54
2023/08/01 04:59:36;;;;;;;2.95;1.30;;;;;;;21.37;50.36;99909.47;16112923;19;130111;-53
2023/08/01 05:04:58;;;;;;;2.70;1.50;;;;;;;21.36;50.17;99918.94;16112004;19;129865;-52
2023/08/01 05:10:20;;;;;;;2.00;1.45;;;;;;;21.35;50.13;99904.16;16109142;19;130343;-52
2023/08/01 05:15:47;;;;;;;5.40;1.65;;;;;;;21.36;50.18;99916.16;16110845;19;130923;-49
2023/08/01 05:21:09;;;;;;;3.20;1.60;;;;;;;21.34;50.08;99922.00;16111481;19;130746;-52
2023/08/01 05:26:31;;;;;;;6.57;2.05;;;;;;;21.35;49.79;99911.69;16112135;19;130478;-54
2023/08/01 05:31:53;;;;;;;2.85;1.98;;;;;;;21.37;49.98;99917.81;16111427;19;130254;-48
2023/08/01 05:37:15;;;;;;;5.65;2.15;;;;;;;21.40;49.84;99925.59;16114078;19;129382;-51
2023/08/01 05:42:37;;;;;;;5.65;1.95;;;;;;;21.42;49.68;99916.94;16113570;19;130176;-49
2023/08/01 05:47:59;;;;;;;10.68;2.47;;;;;;;21.41;49.97;99930.03;16113401;19;133750;-54
2023/08/01 05:53:22;;;;;;;5.35;2.30;;;;;;;21.45;49.80;99931.09;16109814;19;130304;-51
2023/08/01 05:58:43;;;;;;;6.18;2.90;;;;;;;21.51;49.41;99937.47;16111564;19;131896;-51
2023/08/01 06:04:05;;;;;;;6.45;2.33;;;;;;;21.50;49.84;99938.59;16110703;19;130815;-52
2023/08/01 06:09:27;;;;;;;5.80;2.60;;;;;;;21.49;49.40;99943.34;16110007;19;129246;-50
2023/08/01 06:14:50;;;;;;;7.40;2.72;;;;;;;21.49;49.70;99939.72;16126486;19;129383;-52
2023/08/01 06:20:12;;;;;;;8.15;2.88;;;;;;;21.48;49.81;99961.13;16125912;19;129631;-55
2023/08/01 06:25:34;;;;;;;5.07;2.65;;;;;;;21.48;49.44;99961.13;16125662;19;131031;-51
2023/08/01 06:30:56;;;;;;;7.95;2.88;;;;;;;21.47;49.52;99956.69;16122974;19;131861;-50
2023/08/01 06:36:18;;;;;;;7.90;3.08;;;;;;;21.48;49.43;99972.25;16119390;19;130441;-51
2023/08/01 06:41:40;;;;;;;9.80;3.05;;;;;;;21.51;49.75;99968.94;16116318;19;129995;-52
2023/08/01 06:47:03;;;;;;;7.72;2.88;;;;;;;21.51;49.66;99971.72;16120294;19;129905;-52
2023/08/01 06:52:25;;;;;;;6.47;2.50;;;;;;;21.51;49.67;99968.94;16117936;19;129444;-53
2023/08/01 06:57:47;;;;;;;11.07;2.97;;;;;;;21.52;49.60;99978.09;16119265;19;129582;-50
2023/08/01 07:03:09;;;;;;;19.67;3.15;;;;;;;21.51;49.21;99971.72;16119524;19;129829;-54
2023/08/01 07:08:32;;;;;;;6.10;3.08;;;;;;;21.59;49.57;99977.78;16122154;19;129529;-53
2023/08/01 07:13:54;;;;;;;14.50;3.38;;;;;;;21.65;49.18;99982.22;16122237;19;133262;-54
2023/08/01 07:19:16;;;;;;;7.22;3.58;;;;;;;21.65;49.53;99982.22;16121624;19;129951;-55
2023/08/01 07:24:38;;;;;;;14.63;3.30;;;;;;;21.67;49.36;99986.34;16122043;19;130478;-52
2023/08/01 07:30:00;;;;;;;11.65;3.17;;;;;;;21.70;48.89;99982.16;16121913;19;130507;-56
2023/08/01 07:35:22;;;;;;;12.05;3.70;;;;;;;21.70;49.22;99978.53;16122619;19;130467;-48
2023/08/01 07:40:44;;;;;;;8.88;3.60;;;;;;;21.81;48.51;99988.47;16124834;19;129727;-54
2023/08/01 07:46:08;;;;;;;11.75;3.55;;;;;;;21.91;48.60;99980.03;16120463;19;130418;-48
2023/08/01 07:51:30;;;;;;;9.67;3.40;;;;;;;22.01;48.44;99995.84;16115417;19;131333;-49
2023/08/01 07:56:52;;;;;;;11.18;3.50;;;;;;;22.08;48.42;99987.94;16118233;19;129726;-49
2023/08/01 08:02:14;;;;;;;6.45;3.70;;;;;;;22.06;48.15;100001.34;16117145;19;130794;-55
2023/08/01 08:07:37;;;;;;;9.57;4.35;;;;;;;22.07;48.50;99993.81;16117471;19;130561;-50
2023/08/01 08:12:59;;;;;;;11.75;3.70;;;;;;;22.09;48.34;100003.53;16118050;19;129500;-49
2023/08/01 08:18:21;;;;;;;12.30;3.65;;;;;;;22.11;48.18;100003.25;16112915;19;130385;-52
2023/08/01 08:23:43;;;;;;;11.88;3.53;;;;;;;22.09;48.00;100008.31;16112726;19;130266;-47
2023/08/01 08:29:05;;;;;;;9.55;4.03;;;;;;;22.20;48.27;100009.03;16112979;19;129911;-54
2023/08/01 08:34:27;;;;;;;11.10;3.78;;;;;;;22.23;47.83;100009.28;16111592;19;129738;-53
2023/08/01 08:39:49;;;;;;;11.25;4.10;;;;;;;22.29;47.98;100015.63;16116119;19;130358;-53
2023/08/01 08:45:14;;;;;;;7.20;3.22;;;;;;;22.32;48.24;100009.47;16112745;19;130703;-52
2023/08/01 08:50:37;;;;;;;7.27;3.07;;;;;;;22.34;47.79;100015.59;16115800;19;130509;-53
2023/08/01 08:56:00;;;;;;;8.57;3.40;;;;;;;22.36;47.94;100012.50;16118746;19;130414;-53
2023/08/01 09:01:22;;;;;;;14.50;3.45;;;;;;;22.35;48.05;100011.69;16114648;19;130193;-54
2023/08/01 09:06:48;;;;;;;5.03;2.80;;;;;;;22.31;48.40;100018.16;16115164;19;130811;-54
2023/08/01 09:12:13;;;;;;;8.60;3.20;;;;;;;22.34;48.24;100025.94;16116993;19;129724;-55
2023/08/01 09:17:35;;;;;;;6.50;3.22;;;;;;;22.34;48.16;100006.44;16114645;19;130374;-52
2023/08/01 09:22:57;;;;;;;6.68;2.83;;;;;;;22.36;48.32;100012.50;16117199;19;131112;-52
2023/08/01 09:28:21;;;;;;;5.80;3.03;;;;;;;22.40;47.45;100008.84;16114268;19;130003;-54
2023/08/01 09:33:43;;;;;;;6.03;3.03;;;;;;;22.48;47.49;100020.47;16117097;19;129097;-51
2023/08/01 09:39:06;;;;;;;7.45;2.90;;;;;;;22.53;47.37;100012.06;16113326;19;128957;-54
2023/08/01 09:44:29;;;;;;;9.60;2.90;;;;;;;22.53;47.25;100015.69;16113121;19;130940;-54
2023/08/01 09:49:53;;;;;;;7.65;2.90;;;;;;;22.58;47.01;100012.00;16114475;19;129804;-53
2023/08/01 09:55:15;;;;;;;5.35;2.65;;;;;;;22.54;47.02;100025.72;16108196;19;130322;-48
2023/08/01 10:00:37;;;;;;;8.15;3.05;;;;;;;22.52;47.30;100010.41;16113169;19;130761;-51
2023/08/01 10:06:00;;;;;;;10.40;3.20;;;;;;;22.48;47.11;100042.78;16110026;19;130383;-53
2023/08/01 10:11:22;;;;;;;7.72;2.70;;;;;;;22.49;47.02;100033.28;16111921;19;129425;-52
2023/08/01 10:16:45;;;;;;;9.25;2.53;;;;;;;22.55;46.71;100032.09;16107852;19;130142;-55
2023/08/01 10:22:09;;;;;;;6.47;2.28;;;;;;;22.52;46.62;100044.69;16106280;19;129321;-53
2023/08/01 10:27:31;;;;;;;6.25;2.35;;;;;;;22.53;46.74;100046.34;16107484;19;129845;-52
2023/08/01 10:32:56;;;;;;;8.77;2.90;;;;;;;22.53;46.72;100039.94;16106448;19;130342;-48
2023/08/01 10:38:18;;;;;;;11.17;2.53;;;;;;;22.50;46.82;100046.09;16108943;19;130453;-52
2023/08/01 10:43:40;;;;;;;5.82;2.20;;;;;;;22.52;46.53;100043.88;16106800;19;130046;-47
2023/08/01 10:49:02;;;;;;;8.98;2.60;;;;;;;22.56;46.77;100039.34;16106975;19;131246;-51
2023/08/01 10:54:25;;;;;;;9.40;3.20;;;;;;;22.57;46.86;100053.00;16108619;19;130266;-47
2023/08/01 10:59:47;;;;;;;6.40;2.30;;;;;;;22.58;46.52;100076.13;16121429;19;131108;-50
2023/08/01 11:05:09;;;;;;;4.38;2.30;;;;;;;22.58;46.50;100070.53;16120701;19;131673;-50
2023/08/01 11:10:32;;;;;;;9.57;2.42;;;;;;;22.57;46.26;100080.03;16123902;19;130312;-49
2023/08/01 11:15:57;;;;;;;;;;;;;;;22.53;46.53;100088.16;16121150;19;131085;-53
2023/08/01 11:21:29;;;;;;;4.97;2.00;;;;;;;22.59;46.40;100077.78;16124771;19;129995;-52
2023/08/01 11:26:54;;;;;;;5.70;2.05;;;;;;;22.55;46.43;100076.69;16122846;19;129433;-51
2023/08/01 11:32:17;;;;;;;4.90;2.00;;;;;;;22.55;46.33;100083.13;16117250;19;130358;-49
2023/08/01 11:37:39;;;;;;;6.18;2.17;;;;;;;22.55;46.36;100093.44;16116497;19;134364;-51
2023/08/01 11:43:00;;;;;;;5.93;2.33;;;;;;;22.54;46.18;100097.34;16115409;19;130615;-54
2023/08/01 11:48:23;;;;;;;7.90;2.40;;;;;;;22.50;46.35;100085.13;16120641;19;130035;-49
2023/08/01 11:53:46;;;;;;;5.15;1.92;;;;;;;22.48;46.41;100092.94;16115430;19;131096;-54
2023/08/01 11:59:14;;;;;;;5.57;1.80;;;;;;;22.50;46.15;100096.28;16122979;19;131388;-54
2023/08/01 12:04:38;;;;;;;6.18;2.10;;;;;;;22.52;46.34;100105.19;16118678;19;130281;-51
2023/08/01 12:10:01;;;;;;;4.07;2.00;;;;;;;22.53;46.46;100106.81;16116314;19;130930;-51
2023/08/01 12:15:23;;;;;;;3.78;1.67;;;;;;;22.53;46.19;100107.66;16116629;19;129754;-47
2023/08/01 12:20:47;;;;;;;6.43;2.05;;;;;;;22.54;46.31;100102.91;16113413;19;129391;-49
2023/08/01 12:26:09;;;;;;;5.07;2.20;;;;;;;22.51;46.39;100120.25;16119225;19;130786;-55
2023/08/01 12:31:31;;;;;;;4.95;1.85;;;;;;;22.54;46.28;100111.28;16113629;19;130519;-53
2023/08/01 12:36:53;;;;;;;4.93;1.90;;;;;;;22.54;46.40;100116.84;16113909;19;130781;-49
2023/08/01 12:42:15;;;;;;;6.78;1.90;;;;;;;22.54;46.09;100114.91;16112811;19;130040;-54
2023/08/01 12:47:37;;;;;;;6.00;2.00;;;;;;;22.52;46.26;100116.34;16116732;19;130819;-50
2023/08/01 12:52:59;;;;;;;5.22;1.63;;;;;;;22.51;46.24;100120.25;16114825;19;130228;-51
2023/08/01 12:58:21;;;;;;;4.72;1.73;;;;;;;22.48;46.01;100137.53;16112619;19;129717;-54
2023/08/01 13:03:43;;;;;;;5.95;1.80;;;;;;;22.44;46.31;100126.97;16118496;19;131982;-53
2023/08/01 13:09:06;;;;;;;10.05;1.88;;;;;;;22.44;46.42;100138.13;16111025;19;129541;-57
2023/08/01 13:14:28;;;;;;;6.75;1.83;;;;;;;22.47;46.23;100136.69;16111243;19;130411;-54
2023/08/01 13:19:50;;;;;;;5.75;1.42;;;;;;;22.49;46.34;100136.41;16111790;19;130816;-53
2023/08/01 13:25:15;;;;;;;8.73;1.85;;;;;;;22.47;46.30;100138.66;16113830;19;130309;-55
2023/08/01 13:30:37;;;;;;;14.88;1.70;;;;;;;22.46;46.32;100145.34;16112349;19;130300;-55
2023/08/01 13:35:59;;;;;;;12.05;2.53;;;;;;;22.43;46.29;100153.19;16107958;19;131343;-55
2023/08/01 13:41:21;;;;;;;14.02;2.30;;;;;;;22.40;46.25;100150.97;16107690;19;129611;-53
2023/08/01 13:46:43;;;;;;;17.50;2.42;;;;;;;22.38;46.61;100156.03;16112873;19;131604;-55
2023/08/01 13:52:06;;;;;;;18.73;2.78;;;;;;;22.39;46.45;100157.69;16103525;19;131063;-52
2023/08/01 13:57:28;;;;;;;17.80;2.47;;;;;;;22.40;46.22;100150.16;16096455;19;132250;-55
2023/08/01 14:02:51;;;;;;;9.93;2.42;;;;;;;22.39;46.54;100157.69;16111487;19;129653;-54
2023/08/01 14:08:13;;;;;;;14.68;1.95;;;;;;;22.36;46.30;100158.25;16110903;19;131857;-51
2023/08/01 14:13:35;;;;;;;11.73;2.35;;;;;;;22.33;46.28;100158.84;16115945;19;130238;-56
2023/08/01 14:19:01;;;;;;;10.38;2.22;;;;;;;22.33;46.33;100169.97;16110564;19;131331;-52
2023/08/01 14:24:23;;;;;;;;;;;;;;;22.33;46.04;100158.84;16113687;19;129597;-54
2023/08/01 14:29:44;;;;;;;14.02;2.28;;;;;;;22.34;46.36;100166.06;16110538;19;130321;-54
2023/08/01 14:35:07;;;;;;;12.85;1.92;;;;;;;22.34;46.18;100165.25;16121148;19;131008;-56
2023/08/01 14:40:29;;;;;;;7.72;2.22;;;;;;;22.32;46.15;100179.47;16121399;19;129534;-55
2023/08/01 14:45:51;;;;;;;7.50;1.50;;;;;;;22.31;46.14;100182.53;16120754;19;130871;-54
2023/08/01 14:51:13;;;;;;;9.85;2.05;;;;;;;22.28;46.43;100192.28;16117667;19;129446;-55
2023/08/01 14:56:35;;;;;;;11.82;1.98;;;;;;;22.25;46.42;100192.91;16119588;19;131312;-56
2023/08/01 15:01:57;;;;;;;10.38;1.67;;;;;;;22.21;46.55;100195.44;16122837;19;130290;-53
2023/08/01 15:07:19;;;;;;;16.65;1.60;;;;;;;22.20;46.60;100202.09;16118136;19;129720;-50
2023/08/01 15:12:41;;;;;;;10.68;1.73;;;;;;;22.20;46.46;100204.03;16118608;19;130105;-55
2023/08/01 15:18:03;;;;;;;6.53;1.50;;;;;;;22.20;46.41;100206.81;16120384;19;131219;-54
2023/08/01 15:23:25;;;;;;;10.77;2.20;;;;;;;22.20;46.24;100201.25;16120874;19;129358;-53
2023/08/01 15:28:47;;;;;;;5.65;1.40;;;;;;;22.19;46.46;100202.38;16123171;19;129553;-53
2023/08/01 15:34:10;;;;;;;7.18;1.25;;;;;;;22.17;46.46;100211.03;16122174;19;129730;-55
2023/08/01 15:39:32;;;;;;;7.63;1.40;;;;;;;22.16;46.60;100214.94;16118957;19;130230;-53
2023/08/01 15:44:54;;;;;;;5.47;1.33;;;;;;;22.16;46.62;100211.28;16119548;19;130035;-55
2023/08/01 15:50:16;;;;;;;5.55;1.10;;;;;;;22.16;46.41;100226.06;16120112;19;131383;-50
2023/08/01 15:55:38;;;;;;;5.43;1.30;;;;;;;22.15;46.12;100210.47;16121552;19;130258;-54
2023/08/01 16:01:00;;;;;;;6.35;1.02;;;;;;;22.14;46.28;100214.38;16119092;19;130279;-53
2023/08/01 16:06:26;;;;;;;3.35;1.10;;;;;;;22.15;46.28;100218.00;16116783;19;129649;-53
2023/08/01 16:11:48;;;;;;;5.90;1.30;;;;;;;22.15;46.41;100206.88;16102973;19;130170;-50
2023/08/01 16:17:10;;;;;;;6.50;1.60;;;;;;;22.13;46.13;100204.34;16112586;19;130243;-56
2023/08/01 16:22:32;;;;;;;3.60;1.33;;;;;;;22.12;46.10;100203.53;16112621;19;131865;-55
2023/08/01 16:27:54;;;;;;;5.53;1.38;;;;;;;22.12;45.80;100203.53;16112536;19;133868;-54
2023/08/01 16:33:17;;;;;;;8.32;1.13;;;;;;;22.11;45.86;100201.88;16112833;19;130120;-56
2023/08/01 16:38:39;;;;;;;6.18;1.48;;;;;;;22.11;46.10;100198.22;16109724;19;131342;-55
2023/08/01 16:44:01;;;;;;;3.72;1.42;;;;;;;22.10;45.83;100205.75;16112581;19;130323;-54
2023/08/01 16:49:23;;;;;;;9.98;1.35;;;;;;;22.08;45.74;100207.19;16111864;19;130595;-55
2023/08/01 16:54:45;;;;;;;2.80;1.20;;;;;;;22.07;45.91;100206.34;16111803;19;130107;-54
2023/08/01 17:00:08;;;;;;;6.45;1.40;;;;;;;22.05;46.04;100208.56;16118477;19;129776;-52
2023/08/01 17:05:31;;;;;;;6.30;1.52;;;;;;;22.03;46.40;100199.66;16114446;19;129556;-56
2023/08/01 17:10:53;;;;;;;10.48;1.73;;;;;;;22.02;46.03;100198.03;16118015;19;129520;-55
2023/08/01 17:16:15;;;;;;;10.70;1.83;;;;;;;22.04;46.55;100200.50;16115450;19;130523;-51
2023/08/01 17:21:37;;;;;;;20.80;2.00;;;;;;;22.05;46.55;100216.94;16113455;19;130077;-55
2023/08/01 17:26:59;;;;;;;10.18;1.75;;;;;;;22.06;46.35;100221.38;16113949;19;130587;-55
2023/08/01 17:32:21;;;;;;;18.92;1.80;;;;;;;22.08;46.77;100229.47;16111462;19;129584;-50
2023/08/01 17:37:44;;;;;;;9.50;2.00;;;;;;;22.09;46.46;100226.38;16117138;19;130363;-53
2023/08/01 17:43:06;;;;;;;7.78;1.80;;;;;;;22.10;46.57;100225.25;16109681;19;130501;-50
2023/08/01 17:48:28;;;;;;;16.05;2.60;;;;;;;22.10;46.66;100228.06;16112659;19;131703;-57
2023/08/01 17:53:50;;;;;;;19.02;2.40;;;;;;;22.10;46.58;100225.25;16116247;19;129520;-58
2023/08/01 17:59:15;;;;;;;16.13;2.55;;;;;;;22.13;47.03;100226.63;16111845;19;131229;-55
2023/08/01 18:04:45;;;;;;;10.43;1.80;;;;;;;22.15;47.04;100224.41;16112455;19;130242;-52
2023/08/01 18:10:08;;;;;;;15.55;2.00;;;;;;;22.18;46.90;100231.34;16126113;19;129975;-53
2023/08/01 18:15:36;;;;;;;16.30;2.65;;;;;;;22.19;46.69;100233.84;16126818;19;131429;-55
2023/08/01 18:21:01;;;;;;;12.98;1.88;;;;;;;22.19;46.96;100235.78;16123985;19;131551;-51
2023/08/01 18:26:24;;;;;;;13.85;1.80;;;;;;;22.19;46.97;100235.78;16122143;19;130331;-50
2023/08/01 18:31:48;;;;;;;9.15;2.08;;;;;;;22.22;46.71;100243.63;16116415;19;129620;-49
2023/08/01 18:37:10;;;;;;;17.13;2.60;;;;;;;22.23;46.92;100248.06;16115011;19;130399;-54
2023/08/01 18:42:32;;;;;;;17.05;2.33;;;;;;;22.22;47.02;100238.03;16121306;19;130963;-58
2023/08/01 18:47:54;;;;;;;19.92;2.78;;;;;;;22.21;47.09;100242.81;16124065;19;133572;-51
2023/08/01 18:53:16;;;;;;;14.45;2.28;;;;;;;22.24;47.05;100246.94;16125958;19;130639;-54
2023/08/01 18:58:39;;;;;;;12.77;1.95;;;;;;;22.24;47.14;100252.53;16119617;19;130064;-51
2023/08/01 19:04:02;;;;;;;14.32;2.00;;;;;;;22.26;47.34;100253.91;16120527;19;130576;-51
2023/08/01 19:09:24;;;;;;;14.60;1.98;;;;;;;22.26;47.07;100253.91;16116376;19;131329;-60
2023/08/01 19:14:46;;;;;;;11.85;1.83;;;;;;;22.29;47.26;100252.47;16121913;19;130530;-54
2023/08/01 19:20:10;;;;;;;15.30;2.33;;;;;;;22.28;47.57;100239.66;16118419;19;130905;-57
2023/08/01 19:25:32;;;;;;;8.32;1.95;;;;;;;22.29;47.11;100252.47;16121169;19;130658;-52
2023/08/01 19:30:54;;;;;;;9.73;1.75;;;;;;;22.31;47.08;100258.59;16117864;19;134216;-54
2023/08/01 19:36:16;;;;;;;19.02;2.28;;;;;;;22.31;47.30;100253.03;16119803;19;130732;-54
2023/08/01 19:41:38;;;;;;;6.18;1.60;;;;;;;22.33;47.26;100255.53;16115969;19;129576;-53
2023/08/01 19:47:01;;;;;;;13.77;1.92;;;;;;;22.33;47.23;100253.56;16117925;19;130072;-56
2023/08/01 19:52:23;;;;;;;11.48;1.42;;;;;;;22.32;47.12;100254.69;16118357;19;130725;-49
2023/08/01 19:57:45;;;;;;;9.40;1.50;;;;;;;22.33;47.46;100245.22;16118672;19;129211;-52
2023/08/01 20:03:07;;;;;;;10.05;2.13;;;;;;;22.32;47.52;100235.19;16119801;19;130040;-56
2023/08/01 20:08:29;;;;;;;10.82;1.90;;;;;;;22.33;47.27;100236.84;16117438;19;132716;-53
2023/08/01 20:13:51;;;;;;;18.17;2.03;;;;;;;22.33;47.63;100236.84;16115373;19;129798;-53
2023/08/01 20:19:13;;;;;;;11.98;2.00;;;;;;;22.30;47.30;100231.03;16120255;19;130309;-57
2023/08/01 20:24:36;;;;;;;15.30;2.03;;;;;;;22.25;47.63;100223.53;16117767;19;129649;-56
2023/08/01 20:29:58;;;;;;;11.48;1.92;;;;;;;22.22;47.45;100224.13;16113677;19;130877;-55
2023/08/01 20:35:20;;;;;;;18.90;1.83;;;;;;;22.19;47.13;100219.06;16114761;19;131056;-56
2023/08/01 20:40:42;;;;;;;8.02;1.90;;;;;;;22.16;47.51;100226.06;16115002;19;129820;-55
2023/08/01 20:46:04;;;;;;;10.98;1.38;;;;;;;22.15;47.45;100223.59;16113213;19;129732;-55
2023/08/01 20:51:26;;;;;;;12.55;1.85;;;;;;;22.15;47.20;100206.88;16113995;19;129760;-55
2023/08/01 20:56:48;;;;;;;6.32;1.42;;;;;;;22.09;47.76;100218.03;16114094;19;129282;-56
2023/08/01 21:02:10;;;;;;;9.57;1.55;;;;;;;22.09;47.41;100225.56;16113813;19;129860;-56
2023/08/01 21:07:32;;;;;;;11.65;1.98;;;;;;;22.08;47.63;100229.47;16106793;19;129795;-55
2023/08/01 21:12:54;;;;;;;8.80;1.75;;;;;;;22.07;47.72;100234.19;16118609;19;132536;-55
2023/08/01 21:18:16;;;;;;;11.70;1.45;;;;;;;22.05;47.62;100230.84;16111030;19;129831;-56
2023/08/01 21:23:42;;;;;;;8.75;1.80;;;;;;;22.04;47.45;100226.41;16115728;19;131138;-54
2023/08/01 21:29:04;;;;;;;8.13;1.42;;;;;;;22.03;47.35;100229.47;16112709;19;132142;-55
2023/08/01 21:34:26;;;;;;;7.93;1.50;;;;;;;22.02;47.50;100220.31;16113475;19;129581;-55
2023/08/01 21:39:48;;;;;;;7.88;1.50;;;;;;;22.01;47.71;100226.16;16109503;19;130682;-59
2023/08/01 21:45:10;;;;;;;5.22;1.70;;;;;;;21.99;47.43;100220.88;16110857;19;130682;-56
2023/08/01 21:50:33;;;;;;;4.90;1.58;;;;;;;21.97;47.43;100218.34;16114310;19;130974;-56
2023/08/01 21:55:56;;;;;;;3.33;0.90;;;;;;;21.96;47.50;100207.50;16114168;19;129882;-57
2023/08/01 22:01:18;;;;;;;10.70;1.40;;;;;;;21.95;47.46;100208.63;16111180;19;129606;-56
2023/08/01 22:06:40;;;;;;;7.20;1.40;;;;;;;21.94;47.51;100204.19;16109372;19;130107;-54
2023/08/01 22:12:06;;;;;;;4.90;1.42;;;;;;;21.93;47.42;100205.28;16109303;19;130198;-55
2023/08/01 22:17:28;;;;;;;3.83;1.20;;;;;;;21.91;47.13;100202.81;16106098;19;130425;-52
2023/08/01 22:22:51;;;;;;;5.57;1.05;;;;;;;21.91;47.43;100202.00;16110890;19;130486;-56
2023/08/01 22:28:13;;;;;;;4.03;1.52;;;;;;;21.89;47.63;100205.03;16110913;19;131204;-57
2023/08/01 22:33:35;;;;;;;7.05;1.27;;;;;;;21.88;47.49;100199.75;16109161;19;129561;-54
2023/08/01 22:38:58;;;;;;;4.72;1.50;;;;;;;21.86;47.13;100180.53;16108644;19;129829;-54
2023/08/01 22:44:20;;;;;;;3.00;0.93;;;;;;;21.85;47.32;100162.16;16109006;19;130482;-52
2023/08/01 22:49:42;;;;;;;6.63;1.30;;;;;;;21.83;47.47;100156.91;16106597;19;131520;-53
2023/08/01 22:55:24;;;;;;;3.10;0.93;;;;;;;21.85;47.60;100153.00;16117889;19;130525;-54
2023/08/01 23:00:50;;;;;;;4.40;0.93;;;;;;;21.82;47.64;100149.66;16124197;19;130531;-51
2023/08/01 23:06:14;;;;;;;3.58;1.02;;;;;;;21.82;47.42;100137.72;16122820;19;130652;-55
2023/08/01 23:11:37;;;;;;;4.20;1.10;;;;;;;21.81;47.47;100125.72;16119945;19;131163;-56
2023/08/01 23:16:59;;;;;;;6.15;1.23;;;;;;;21.79;47.38;100111.25;16113236;19;130871;-55
2023/08/01 23:22:21;;;;;;;2.95;1.10;;;;;;;21.79;47.63;100125.16;16113803;19;130188;-52
2023/08/01 23:27:43;;;;;;;2.15;0.70;;;;;;;21.77;47.51;100121.88;16121447;19;131296;-54
2023/08/01 23:33:07;;;;;;;5.00;0.95;;;;;;;21.76;47.25;100106.28;16120030;19;130704;-50
2023/08/01 23:38:29;;;;;;;3.20;0.90;;;;;;;21.75;47.73;100096.25;16117535;19;129822;-55
2023/08/01 23:43:51;;;;;;;3.97;1.35;;;;;;;21.75;47.21;100104.63;16121207;19;130823;-49
2023/08/01 23:49:12;;;;;;;3.30;0.70;;;;;;;21.74;47.43;100107.66;16118564;19;129534;-55
2023/08/01 23:54:35;;;;;;;6.60;1.00;;;;;;;21.74;47.75;100093.75;16116818;19;130577;-56
2023/08/01 23:59:57;;;;;;;1.27;0.57;;;;;;;21.72;47.33;100074.56;16119975;19;130284;-53
